Time;durP1;ratioP1;P1;durP2;ratioP2;P2;SDS_P1;SDS_P2;PMS_P1;PMS_P2;Temp;Humidity;BMP_temperature;BMP_pressure;BME280_temperature;BME280_humidity;BME280_pressure;Samples;Min_cycle;Max_cycle;Signal;HPM_P1;HPM_P2
2021/01/11 00:01:23;;;;;;;55.57;34.13;;;4.30;99.90;;;;;;5074005;28;39320;-76
2021/01/11 00:03:49;;;;;;;48.90;31.53;;;4.30;99.90;;;;;;5074853;28;42314;-76
2021/01/11 00:06:15;;;;;;;53.53;32.93;;;4.30;99.90;;;;;;5062869;28;40037;-76
2021/01/11 00:08:41;;;;;;;46.53;30.37;;;4.30;99.90;;;;;;5073203;27;38303;-77
2021/01/11 00:11:07;;;;;;;47.50;31.13;;;4.30;99.90;;;;;;5068349;28;38652;-76
2021/01/11 00:13:33;;;;;;;53.73;32.80;;;4.30;99.90;;;;;;5085086;28;38956;-76
2021/01/11 00:16:00;;;;;;;50.63;32.80;;;4.40;99.90;;;;;;5074900;28;38939;-76
2021/01/11 00:18:26;;;;;;;50.50;33.00;;;4.40;99.90;;;;;;5053136;27;39274;-76
2021/01/11 00:20:52;;;;;;;54.20;32.93;;;4.40;99.90;;;;;;5067509;28;39230;-76
2021/01/11 00:23:18;;;;;;;51.30;33.97;;;4.40;99.90;;;;;;5055153;28;38485;-77
2021/01/11 00:25:44;;;;;;;56.07;33.83;;;4.40;99.90;;;;;;5065303;28;39603;-76
2021/01/11 00:28:10;;;;;;;52.73;34.60;;;4.40;99.90;;;;;;5056895;28;38588;-76
2021/01/11 00:30:39;;;;;;;51.97;33.33;;;4.40;99.90;;;;;;5056475;28;37067;-76
2021/01/11 00:33:05;;;;;;;55.40;34.03;;;4.40;99.90;;;;;;5052880;27;38604;-76
2021/01/11 00:35:31;;;;;;;53.90;33.77;;;4.40;99.90;;;;;;5067169;28;39290;-76
2021/01/11 00:37:57;;;;;;;53.77;33.87;;;4.40;99.90;;;;;;5067564;28;38141;-76
2021/01/11 00:40:23;;;;;;;49.67;32.10;;;4.40;99.90;;;;;;5075480;28;37528;-76
2021/01/11 00:42:50;;;;;;;57.57;34.57;;;4.40;99.90;;;;;;5072460;28;38919;-76
2021/01/11 00:45:16;;;;;;;52.53;32.73;;;4.40;99.90;;;;;;5066725;28;38719;-75
2021/01/11 00:47:42;;;;;;;58.60;35.50;;;4.40;99.90;;;;;;5056594;28;38199;-76
2021/01/11 00:50:09;;;;;;;57.57;34.93;;;4.40;99.90;;;;;;5073599;28;37925;-76
2021/01/11 00:52:36;;;;;;;50.43;32.37;;;4.40;99.90;;;;;;5060497;28;39143;-76
2021/01/11 00:55:05;;;;;;;52.83;32.87;;;4.40;99.90;;;;;;5068660;28;39118;-76
2021/01/11 00:57:31;;;;;;;54.77;34.53;;;4.50;99.90;;;;;;5057938;28;47290;-76
2021/01/11 00:59:57;;;;;;;53.90;33.23;;;4.40;99.90;;;;;;5078994;28;38526;-76
2021/01/11 01:02:23;;;;;;;54.37;33.10;;;4.40;99.90;;;;;;5060353;28;39437;-76
2021/01/11 01:04:49;;;;;;;52.77;34.00;;;4.40;99.90;;;;;;5070100;28;38566;-76
2021/01/11 01:07:15;;;;;;;55.17;34.57;;;4.40;99.90;;;;;;5056126;28;38382;-76
2021/01/11 01:09:41;;;;;;;52.60;34.63;;;4.40;99.90;;;;;;5062718;28;38260;-77
2021/01/11 01:12:08;;;;;;;59.83;37.60;;;4.40;99.90;;;;;;5069218;28;40391;-76
2021/01/11 01:14:34;;;;;;;54.53;35.13;;;4.40;99.90;;;;;;5060514;28;39559;-76
2021/01/11 01:17:00;;;;;;;62.47;36.90;;;4.40;99.90;;;;;;5062223;28;38828;-76
2021/01/11 01:19:26;;;;;;;51.80;34.10;;;4.40;99.90;;;;;;5076777;28;39694;-76
2021/01/11 01:21:52;;;;;;;52.70;32.73;;;4.40;99.90;;;;;;5069652;28;39084;-76
2021/01/11 01:24:18;;;;;;;54.80;34.10;;;4.50;99.90;;;;;;5087404;28;39596;-77
2021/01/11 01:26:45;;;;;;;57.13;36.87;;;4.50;99.90;;;;;;5077771;28;38724;-76
2021/01/11 01:29:11;;;;;;;54.10;34.20;;;4.50;99.90;;;;;;5080359;28;38396;-76
2021/01/11 01:31:37;;;;;;;56.97;34.77;;;4.50;99.90;;;;;;5089387;28;39022;-76
2021/01/11 01:34:03;;;;;;;53.23;34.67;;;4.50;99.90;;;;;;5074772;28;39425;-76
2021/01/11 01:36:29;;;;;;;49.13;32.73;;;4.50;99.90;;;;;;5078846;28;39594;-76
2021/01/11 01:38:55;;;;;;;55.77;34.93;;;4.50;99.90;;;;;;5060730;28;38997;-77
2021/01/11 01:41:21;;;;;;;50.57;32.60;;;4.40;99.90;;;;;;5083183;28;40343;-76
2021/01/11 01:43:47;;;;;;;55.17;34.27;;;4.40;99.90;;;;;;5073877;28;38861;-76
2021/01/11 01:46:20;;;;;;;55.73;34.77;;;4.40;99.90;;;;;;5086150;28;38295;-76
2021/01/11 01:48:47;;;;;;;54.37;33.73;;;4.40;99.90;;;;;;5086330;28;38046;-76
2021/01/11 01:51:14;;;;;;;56.13;35.17;;;4.40;99.90;;;;;;5094039;28;38286;-76
2021/01/11 01:53:40;;;;;;;52.67;34.87;;;4.40;99.90;;;;;;5093836;28;36785;-77
2021/01/11 01:56:06;;;;;;;63.77;38.70;;;4.40;99.90;;;;;;5097492;28;38541;-77
2021/01/11 01:58:35;;;;;;;64.40;39.07;;;4.40;99.90;;;;;;5086436;28;38475;-76
2021/01/11 02:01:01;;;;;;;62.37;37.70;;;4.40;99.90;;;;;;5082334;28;39387;-76
2021/01/11 02:03:27;;;;;;;59.80;38.23;;;4.30;99.90;;;;;;5096002;28;48760;-76
2021/01/11 02:05:53;;;;;;;57.13;36.40;;;4.40;99.90;;;;;;5090222;28;37937;-76
2021/01/11 02:08:36;;;;;;;56.77;36.63;;;4.40;99.90;;;;;;5089457;28;38612;-76
2021/01/11 02:11:08;;;;;;;63.83;38.83;;;4.40;99.90;;;;;;5090238;28;39477;-76
2021/01/11 02:14:00;;;;;;;68.35;40.25;;;4.40;99.90;;;;;;5064075;28;38284;-77
2021/01/11 02:16:44;;;;;;;62.17;39.27;;;4.40;99.90;;;;;;5073797;28;38147;-76
2021/01/11 02:19:16;;;;;;;70.00;42.73;;;4.50;99.90;;;;;;5076534;28;37445;-76
2021/01/11 02:21:51;;;;;;;63.42;39.78;;;4.50;99.90;;;;;;5080315;28;40715;-77
2021/01/11 02:24:42;;;;;;;64.03;39.07;;;4.40;99.90;;;;;;5094333;28;39015;-76
2021/01/11 02:27:32;;;;;;;76.73;43.93;;;4.50;99.90;;;;;;5089778;28;37112;-76
2021/01/11 02:30:31;;;;;;;67.67;40.63;;;4.50;99.90;;;;;;5079490;28;39468;-77
2021/01/11 02:33:08;;;;;;;60.53;38.63;;;4.50;99.90;;;;;;5098089;28;48640;-77
2021/01/11 02:35:58;;;;;;;66.23;39.33;;;4.50;99.90;;;;;;5076368;28;47280;-76
2021/01/11 02:38:25;;;;;;;64.03;39.83;;;4.50;99.90;;;;;;5063196;28;38898;-76
2021/01/11 02:40:51;;;;;;;68.13;40.83;;;4.50;99.90;;;;;;5085913;28;37387;-76
2021/01/11 02:43:18;;;;;;;60.90;39.67;;;4.50;99.90;;;;;;5085626;28;39343;-76
2021/01/11 02:45:44;;;;;;;69.60;41.90;;;4.50;99.90;;;;;;5077993;28;37456;-76
2021/01/11 02:48:33;;;;;;;69.40;40.77;;;4.50;99.90;;;;;;5068242;28;37349;-75
2021/01/11 02:51:30;;;;;;;66.17;41.17;;;4.50;99.90;;;;;;5077675;28;36775;-76
2021/01/11 02:54:17;;;;;;;70.47;41.70;;;4.50;99.90;;;;;;5090410;28;48268;-76
2021/01/11 02:57:03;;;;;;;70.63;43.13;;;4.60;99.90;;;;;;5063828;28;47506;-76
2021/01/11 02:59:36;;;;;;;71.53;42.10;;;4.60;99.90;;;;;;5075543;28;47290;-76
2021/01/11 03:02:08;;;;;;;69.70;41.37;;;4.60;99.90;;;;;;5090283;28;38336;-75
2021/01/11 03:04:36;;;;;;;67.43;40.80;;;4.60;99.90;;;;;;5075628;28;40894;-75
2021/01/11 03:07:04;;;;;;;77.73;44.90;;;4.70;99.90;;;;;;5083460;28;38651;-75
2021/01/11 03:09:32;;;;;;;73.80;43.97;;;4.70;99.90;;;;;;5074868;28;36962;-75
2021/01/11 03:11:58;;;;;;;78.63;44.67;;;4.70;99.90;;;;;;5087526;28;37845;-75
2021/01/11 03:14:25;;;;;;;75.60;43.03;;;4.70;99.90;;;;;;5074409;28;39111;-76
2021/01/11 03:16:52;;;;;;;75.47;44.33;;;4.70;99.90;;;;;;5089610;28;38456;-75
2021/01/11 03:19:18;;;;;;;80.17;45.40;;;4.70;99.90;;;;;;5085204;28;38956;-75
2021/01/11 03:21:44;;;;;;;75.57;44.00;;;4.60;99.90;;;;;;5070746;28;36793;-76
2021/01/11 03:24:13;;;;;;;77.83;45.27;;;4.70;99.90;;;;;;5088829;27;38338;-75
2021/01/11 03:26:39;;;;;;;72.83;44.50;;;4.70;99.90;;;;;;5052527;28;41856;-75
2021/01/11 03:29:05;;;;;;;78.37;44.20;;;4.70;99.90;;;;;;5063199;28;39837;-75
2021/01/11 03:31:31;;;;;;;75.23;44.27;;;4.70;99.90;;;;;;5072642;28;37993;-75
2021/01/11 03:33:57;;;;;;;68.33;40.83;;;4.70;99.90;;;;;;5101252;28;37611;-76
2021/01/11 03:36:23;;;;;;;73.50;42.67;;;4.70;99.90;;;;;;5093338;28;38554;-76
2021/01/11 03:38:50;;;;;;;71.30;42.20;;;4.70;99.90;;;;;;5084436;28;37122;-76
2021/01/11 03:41:16;;;;;;;66.03;39.67;;;4.70;99.90;;;;;;5070473;28;37155;-76
2021/01/11 03:43:45;;;;;;;70.80;42.13;;;4.70;99.90;;;;;;5095687;28;40411;-76
2021/01/11 03:46:13;;;;;;;69.53;41.53;;;4.70;99.90;;;;;;5097060;28;38455;-76
2021/01/11 03:48:40;;;;;;;67.67;40.87;;;4.70;99.90;;;;;;5089174;28;38848;-76
2021/01/11 03:51:06;;;;;;;70.10;41.73;;;4.70;99.90;;;;;;5084979;28;38468;-76
2021/01/11 03:53:33;;;;;;;69.53;41.27;;;4.70;99.90;;;;;;5098562;27;40525;-76
2021/01/11 03:55:59;;;;;;;73.60;41.70;;;4.70;99.90;;;;;;5093614;28;38629;-75
2021/01/11 03:58:25;;;;;;;67.27;40.33;;;4.70;99.90;;;;;;5089300;27;38154;-76
2021/01/11 04:00:51;;;;;;;66.23;39.13;;;4.70;99.90;;;;;;5065668;28;37718;-75
2021/01/11 04:03:18;;;;;;;63.53;39.63;;;4.70;99.90;;;;;;5087179;28;38028;-76
2021/01/11 04:05:47;;;;;;;65.77;38.63;;;4.70;99.90;;;;;;5081424;28;38757;-76
2021/01/11 04:08:16;;;;;;;62.87;37.60;;;4.70;99.90;;;;;;5081693;27;37370;-75
2021/01/11 04:10:42;;;;;;;57.67;35.87;;;4.60;99.90;;;;;;5081967;28;39495;-75
2021/01/11 04:13:08;;;;;;;54.60;35.70;;;4.70;99.90;;;;;;5062240;28;37430;-76
2021/01/11 04:15:35;;;;;;;57.87;35.87;;;4.70;99.90;;;;;;5092399;28;39106;-76
2021/01/11 04:18:02;;;;;;;64.53;37.23;;;4.70;99.90;;;;;;5071526;28;40141;-76
2021/01/11 04:20:28;;;;;;;63.47;35.37;;;4.70;99.90;;;;;;5080462;28;48447;-76
2021/01/11 04:22:55;;;;;;;56.00;33.77;;;4.70;99.90;;;;;;5084558;28;40530;-76
2021/01/11 04:25:23;;;;;;;55.50;34.03;;;4.70;99.90;;;;;;5084450;28;38496;-75
2021/01/11 04:27:49;;;;;;;67.13;40.07;;;4.70;99.90;;;;;;5076097;28;38792;-76
2021/01/11 04:30:15;;;;;;;67.50;40.63;;;4.70;99.90;;;;;;5079488;28;36889;-76
2021/01/11 04:32:41;;;;;;;65.30;40.20;;;4.70;99.90;;;;;;5077073;28;38298;-76
2021/01/11 04:35:10;;;;;;;63.87;39.73;;;4.60;99.90;;;;;;5080973;28;38355;-76
2021/01/11 04:37:39;;;;;;;67.53;41.00;;;4.60;99.90;;;;;;5085901;28;37317;-76
2021/01/11 04:40:06;;;;;;;71.10;40.57;;;4.60;99.90;;;;;;5094656;28;37570;-76
2021/01/11 04:42:48;;;;;;;69.47;41.57;;;4.60;99.90;;;;;;5088832;28;37914;-76
2021/01/11 04:45:24;;;;;;;66.27;40.60;;;4.60;99.90;;;;;;5084296;28;38299;-76
2021/01/11 04:47:58;;;;;;;69.77;40.67;;;4.60;99.90;;;;;;5079582;28;38213;-76
2021/01/11 04:50:25;;;;;;;68.27;41.37;;;4.60;99.90;;;;;;5071532;28;38454;-76
2021/01/11 04:52:52;;;;;;;63.70;38.60;;;4.60;99.90;;;;;;5074818;28;39667;-76
2021/01/11 04:55:20;;;;;;;66.77;40.07;;;4.60;99.90;;;;;;5087814;28;39132;-76
2021/01/11 04:57:53;;;;;;;58.03;37.23;;;4.60;99.90;;;;;;5075193;28;38261;-76
2021/01/11 05:00:24;;;;;;;57.20;35.93;;;4.60;99.90;;;;;;5072075;28;38843;-76
2021/01/11 05:02:57;;;;;;;58.50;36.13;;;4.60;99.90;;;;;;5082344;28;37739;-76
2021/01/11 05:05:23;;;;;;;46.63;31.00;;;4.60;99.90;;;;;;5073682;28;38673;-75
2021/01/11 05:07:50;;;;;;;50.60;31.63;;;4.60;99.90;;;;;;5073282;28;38875;-75
2021/01/11 05:10:24;;;;;;;46.13;30.23;;;4.60;99.90;;;;;;5090479;28;36026;-76
2021/01/11 05:13:04;;;;;;;42.87;27.40;;;4.60;99.90;;;;;;5087420;28;38238;-76
2021/01/11 05:15:33;;;;;;;41.80;26.83;;;4.60;99.90;;;;;;5067710;28;46787;-76
2021/01/11 05:17:59;;;;;;;43.60;28.30;;;4.70;99.90;;;;;;5087700;28;38915;-75
2021/01/11 05:20:28;;;;;;;38.53;25.43;;;4.70;99.90;;;;;;5080227;28;37876;-76
2021/01/11 05:22:59;;;;;;;37.80;23.20;;;4.70;99.90;;;;;;5094703;28;38461;-75
2021/01/11 05:25:27;;;;;;;35.00;23.10;;;4.70;99.90;;;;;;5091863;28;38145;-75
2021/01/11 05:28:11;;;;;;;34.00;23.30;;;4.70;99.90;;;;;;5090542;28;38539;-75
2021/01/11 05:30:42;;;;;;;33.20;22.50;;;4.70;99.90;;;;;;5074177;28;46517;-75
2021/01/11 05:33:15;;;;;;;30.17;21.93;;;4.70;99.90;;;;;;5085847;28;38813;-75
2021/01/11 05:35:41;;;;;;;34.37;22.47;;;4.70;99.90;;;;;;5091580;28;37537;-75
2021/01/11 05:38:34;;;;;;;29.73;19.70;;;4.70;99.90;;;;;;5096822;28;38807;-75
2021/01/11 05:41:11;;;;;;;;;;;4.70;99.90;;;;;;5073966;28;38590;-76
2021/01/11 05:43:37;;;;;;;32.03;19.50;;;4.70;99.90;;;;;;5086020;28;48310;-75
2021/01/11 05:46:21;;;;;;;31.43;20.60;;;4.70;99.90;;;;;;5094101;28;38400;-76
2021/01/11 05:49:03;;;;;;;31.87;20.13;;;4.70;99.90;;;;;;5072672;28;40270;-75
2021/01/11 05:51:30;;;;;;;30.88;20.75;;;4.70;99.90;;;;;;5079679;28;47246;-76
2021/01/11 05:53:57;;;;;;;36.67;21.23;;;4.80;99.90;;;;;;5080959;28;39738;-76
2021/01/11 05:56:24;;;;;;;32.27;20.17;;;4.80;99.90;;;;;;5082803;28;39760;-75
2021/01/11 05:59:06;;;;;;;27.33;20.73;;;4.70;99.90;;;;;;5087753;28;39358;-75
2021/01/11 06:01:34;;;;;;;29.97;20.97;;;4.70;99.90;;;;;;5081678;27;48935;-75
2021/01/11 06:04:00;;;;;;;34.63;20.77;;;4.70;99.90;;;;;;5086940;28;38528;-74
2021/01/11 06:06:26;;;;;;;36.83;21.03;;;4.70;99.90;;;;;;5075846;28;41670;-75
2021/01/11 06:08:54;;;;;;;34.97;22.83;;;4.70;99.90;;;;;;5075334;28;37479;-75
2021/01/11 06:11:25;;;;;;;32.07;21.53;;;4.70;99.90;;;;;;5070640;28;38305;-75
2021/01/11 06:13:53;;;;;;;28.17;19.50;;;4.60;99.90;;;;;;5057706;28;39247;-75
2021/01/11 06:16:21;;;;;;;33.43;21.00;;;4.70;99.90;;;;;;5057406;28;37312;-75
2021/01/11 06:18:49;;;;;;;28.00;17.63;;;4.70;99.90;;;;;;5064010;28;40103;-75
2021/01/11 06:21:22;;;;;;;26.90;18.27;;;4.70;99.90;;;;;;5060810;28;39130;-76
2021/01/11 06:24:15;;;;;;;25.30;17.57;;;4.70;99.90;;;;;;5048918;28;39114;-75
2021/01/11 06:26:42;;;;;;;26.77;17.05;;;4.70;99.90;;;;;;5073001;28;46561;-75
2021/01/11 06:29:28;;;;;;;23.90;15.40;;;4.70;99.90;;;;;;5064161;28;38525;-74
2021/01/11 06:31:57;;;;;;;24.20;15.60;;;4.70;99.90;;;;;;5068020;28;37906;-75
2021/01/11 06:34:34;;;;;;;22.47;15.43;;;4.70;99.90;;;;;;5061647;28;40244;-75
2021/01/11 06:37:02;;;;;;;24.43;16.33;;;4.70;99.90;;;;;;5069253;28;38660;-74
2021/01/11 06:39:31;;;;;;;24.33;15.97;;;4.70;99.90;;;;;;5058298;28;48774;-75
2021/01/11 06:42:09;;;;;;;22.67;15.13;;;4.80;99.90;;;;;;5068585;28;38380;-75
2021/01/11 06:44:37;;;;;;;23.40;16.30;;;4.80;99.90;;;;;;5081956;28;45389;-76
2021/01/11 06:47:03;;;;;;;23.53;17.03;;;4.80;99.90;;;;;;5063500;28;38555;-75
2021/01/11 06:49:30;;;;;;;23.87;17.07;;;4.80;99.90;;;;;;5052475;28;38160;-75
2021/01/11 06:52:08;;;;;;;24.53;17.03;;;4.80;99.90;;;;;;5053003;28;37111;-74
2021/01/11 06:54:44;;;;;;;27.67;18.03;;;4.80;99.90;;;;;;5048300;28;47283;-75
2021/01/11 06:57:19;;;;;;;25.70;17.50;;;4.80;99.90;;;;;;5052926;28;39125;-75
2021/01/11 06:59:46;;;;;;;24.57;17.87;;;4.80;99.90;;;;;;5049471;28;38250;-73
2021/01/11 07:02:24;;;;;;;25.17;17.13;;;4.80;99.90;;;;;;5064429;28;38174;-74
2021/01/11 07:04:51;;;;;;;25.47;19.03;;;4.80;99.90;;;;;;5055696;28;39942;-75
2021/01/11 07:07:20;;;;;;;29.73;20.00;;;4.70;99.90;;;;;;5069764;28;39310;-74
2021/01/11 07:09:50;;;;;;;29.20;21.30;;;4.70;99.90;;;;;;5073541;28;38073;-75
2021/01/11 07:12:20;;;;;;;30.80;21.10;;;4.60;99.90;;;;;;5090023;28;38823;-74
2021/01/11 07:14:57;;;;;;;28.43;20.93;;;4.60;99.90;;;;;;5075990;28;40364;-75
2021/01/11 07:17:42;;;;;;;33.47;22.97;;;4.50;99.90;;;;;;5073215;28;39961;-74
2021/01/11 07:20:11;;;;;;;33.03;23.83;;;4.50;99.90;;;;;;5062841;28;38602;-74
2021/01/11 07:22:42;;;;;;;31.83;22.90;;;4.50;99.90;;;;;;5069255;28;37810;-75
2021/01/11 07:25:24;;;;;;;32.90;22.77;;;4.50;99.90;;;;;;5072370;28;39028;-73
2021/01/11 07:27:58;;;;;;;31.20;20.63;;;4.50;99.90;;;;;;5065061;28;38585;-74
2021/01/11 07:30:25;;;;;;;31.90;21.40;;;4.50;99.90;;;;;;5062933;28;40016;-74
2021/01/11 07:32:51;;;;;;;29.30;20.93;;;4.50;99.90;;;;;;5070709;28;37622;-73
2021/01/11 07:35:17;;;;;;;31.50;19.40;;;4.50;99.90;;;;;;5089949;28;39323;-73
2021/01/11 07:37:44;;;;;;;25.60;18.07;;;4.50;99.90;;;;;;5066123;28;37581;-74
2021/01/11 07:40:10;;;;;;;28.00;17.20;;;4.60;99.90;;;;;;5077802;28;37205;-74
2021/01/11 07:42:37;;;;;;;23.37;17.03;;;4.60;99.90;;;;;;5065631;28;37591;-75
2021/01/11 07:45:11;;;;;;;25.57;16.50;;;4.60;99.90;;;;;;5070761;28;39649;-75
2021/01/11 07:47:41;;;;;;;24.97;16.30;;;4.70;99.90;;;;;;5068819;28;46938;-73
2021/01/11 07:50:08;;;;;;;23.73;15.63;;;4.70;99.90;;;;;;5053905;28;38385;-73
2021/01/11 07:52:34;;;;;;;21.50;14.80;;;4.70;99.90;;;;;;5049189;28;37534;-74
2021/01/11 07:55:07;;;;;;;21.97;14.40;;;4.70;99.90;;;;;;5065430;28;38816;-74
2021/01/11 07:57:33;;;;;;;22.75;14.05;;;4.70;99.90;;;;;;5052196;28;47322;-74
2021/01/11 08:00:09;;;;;;;18.17;13.47;;;4.70;99.90;;;;;;5066897;28;37988;-75
2021/01/11 08:02:36;;;;;;;20.07;13.63;;;4.80;99.90;;;;;;5076112;28;49400;-75
2021/01/11 08:05:03;;;;;;;20.23;13.93;;;4.80;99.90;;;;;;5065559;28;39808;-75
2021/01/11 08:07:31;;;;;;;21.43;13.80;;;4.80;99.90;;;;;;5063795;28;38695;-75
2021/01/11 08:09:59;;;;;;;19.73;13.40;;;4.80;99.90;;;;;;5063325;28;38309;-75
2021/01/11 08:12:26;;;;;;;15.80;11.93;;;4.80;99.90;;;;;;5057091;28;38637;-75
2021/01/11 08:15:00;;;;;;;20.43;13.53;;;4.90;99.90;;;;;;5073544;28;39368;-75
2021/01/11 08:17:29;;;;;;;16.00;12.20;;;4.90;99.90;;;;;;5072229;28;39667;-74
2021/01/11 08:19:57;;;;;;;16.90;12.90;;;4.90;99.90;;;;;;5055265;28;38187;-74
2021/01/11 08:22:25;;;;;;;18.50;13.40;;;4.90;99.90;;;;;;5052967;28;37411;-74
2021/01/11 08:24:54;;;;;;;19.83;13.10;;;4.90;99.90;;;;;;5072407;28;39896;-75
2021/01/11 08:27:43;;;;;;;16.77;13.13;;;4.90;99.90;;;;;;5070884;28;39086;-74
2021/01/11 08:30:12;;;;;;;18.07;13.83;;;5.00;99.90;;;;;;5053512;28;38132;-74
2021/01/11 08:32:39;;;;;;;18.53;13.50;;;4.90;99.90;;;;;;5064785;28;36944;-74
2021/01/11 08:35:10;;;;;;;20.83;13.53;;;5.00;99.90;;;;;;5070540;28;40405;-74
2021/01/11 08:37:36;;;;;;;17.30;12.67;;;4.90;99.90;;;;;;5064017;28;39141;-75
2021/01/11 08:40:11;;;;;;;20.37;13.67;;;5.00;99.90;;;;;;5071039;28;39034;-75
2021/01/11 08:42:39;;;;;;;20.20;13.77;;;4.90;99.90;;;;;;5056861;28;47748;-75
2021/01/11 08:45:33;;;;;;;17.77;13.77;;;5.00;99.90;;;;;;5069169;28;39806;-73
2021/01/11 08:48:02;;;;;;;20.03;14.27;;;4.90;99.90;;;;;;5061011;28;37765;-73
2021/01/11 08:50:29;;;;;;;16.70;12.63;;;5.00;99.90;;;;;;5072146;28;47171;-74
2021/01/11 08:52:56;;;;;;;20.37;12.83;;;5.00;99.90;;;;;;5077072;28;39458;-75
2021/01/11 08:55:22;;;;;;;21.93;14.03;;;5.00;99.90;;;;;;5074755;28;38879;-74
2021/01/11 08:57:58;;;;;;;18.20;13.23;;;5.00;99.90;;;;;;5071644;28;38498;-74
2021/01/11 09:00:25;;;;;;;17.20;12.17;;;5.00;99.90;;;;;;5071456;27;40023;-74
2021/01/11 09:02:51;;;;;;;19.20;13.20;;;5.10;99.90;;;;;;5062545;28;38105;-75
2021/01/11 09:05:23;;;;;;;17.13;11.93;;;5.10;99.90;;;;;;5058826;28;38422;-74
2021/01/11 09:07:53;;;;;;;14.90;12.30;;;5.10;99.90;;;;;;5051127;28;38412;-74
2021/01/11 09:10:31;;;;;;;17.77;12.10;;;5.10;99.90;;;;;;5070283;28;39337;-75
2021/01/11 09:13:17;;;;;;;16.60;12.37;;;5.10;99.90;;;;;;5072932;28;38857;-74
2021/01/11 09:15:43;;;;;;;17.77;12.83;;;5.10;99.90;;;;;;5081861;28;48971;-75
2021/01/11 09:18:11;;;;;;;18.83;12.57;;;5.20;99.90;;;;;;5080701;28;37472;-74
2021/01/11 09:20:39;;;;;;;15.57;12.30;;;5.20;99.90;;;;;;5076737;28;39058;-75
2021/01/11 09:23:05;;;;;;;19.87;12.90;;;5.20;99.90;;;;;;5075785;28;37516;-74
2021/01/11 09:25:33;;;;;;;16.63;12.83;;;5.20;99.90;;;;;;5062180;28;39361;-74
2021/01/11 09:28:01;;;;;;;17.13;12.77;;;5.20;99.90;;;;;;5088228;28;38087;-74
2021/01/11 09:30:28;;;;;;;17.03;13.33;;;5.20;99.90;;;;;;5092045;28;47179;-74
2021/01/11 09:32:55;;;;;;;16.60;12.73;;;5.20;99.90;;;;;;5073627;27;38585;-74
2021/01/11 09:35:21;;;;;;;18.17;13.60;;;5.20;99.90;;;;;;5062710;28;39058;-75
2021/01/11 09:37:48;;;;;;;18.73;13.10;;;5.20;99.90;;;;;;5083322;28;38514;-74
2021/01/11 09:40:15;;;;;;;19.53;12.87;;;5.20;99.90;;;;;;5071952;28;39912;-75
2021/01/11 09:42:42;;;;;;;18.77;13.27;;;5.30;99.90;;;;;;5070567;28;38389;-75
2021/01/11 09:45:08;;;;;;;17.13;13.23;;;5.20;99.90;;;;;;5072573;28;38710;-74
2021/01/11 09:47:34;;;;;;;17.03;12.53;;;5.30;99.90;;;;;;5082454;28;39996;-75
2021/01/11 09:50:01;;;;;;;20.10;13.90;;;5.30;99.90;;;;;;5073867;28;38976;-74
2021/01/11 09:52:27;;;;;;;17.60;13.13;;;5.30;99.90;;;;;;5075756;28;37269;-75
2021/01/11 09:54:53;;;;;;;18.47;11.97;;;5.30;99.90;;;;;;5096340;28;39931;-75
2021/01/11 09:57:19;;;;;;;17.83;12.53;;;5.30;99.90;;;;;;5082799;27;39677;-75
2021/01/11 09:59:45;;;;;;;16.87;12.30;;;5.30;99.90;;;;;;5087152;28;38244;-74
2021/01/11 10:02:11;;;;;;;16.47;13.20;;;5.30;99.90;;;;;;5082054;28;39251;-73
2021/01/11 10:04:38;;;;;;;19.67;13.17;;;5.40;99.90;;;;;;5085289;28;38875;-72
2021/01/11 10:07:06;;;;;;;16.77;12.00;;;5.40;99.90;;;;;;5088902;28;38822;-73
2021/01/11 10:09:34;;;;;;;15.90;11.27;;;5.50;99.90;;;;;;5062427;28;38563;-72
2021/01/11 10:12:02;;;;;;;16.13;11.07;;;5.50;99.90;;;;;;5078653;28;36688;-73
2021/01/11 10:14:30;;;;;;;14.73;10.50;;;5.60;99.90;;;;;;5070752;28;48695;-73
2021/01/11 10:16:56;;;;;;;18.27;10.20;;;5.60;99.90;;;;;;5067812;28;38037;-75
2021/01/11 10:19:27;;;;;;;11.80;9.43;;;5.60;99.90;;;;;;5065552;28;37052;-73
2021/01/11 10:21:54;;;;;;;14.13;10.13;;;5.70;99.90;;;;;;5083326;28;38226;-72
2021/01/11 10:24:21;;;;;;;13.03;8.40;;;5.70;99.90;;;;;;5083666;28;36617;-73
2021/01/11 10:26:49;;;;;;;12.37;8.37;;;5.80;99.90;;;;;;5080516;28;38687;-75
2021/01/11 10:29:17;;;;;;;10.53;7.30;;;5.80;99.90;;;;;;5077072;28;37357;-76
2021/01/11 10:31:46;;;;;;;12.07;7.93;;;5.80;99.90;;;;;;5078504;28;35994;-73
2021/01/11 10:34:15;;;;;;;17.43;8.23;;;5.90;99.90;;;;;;5084277;27;39517;-73
2021/01/11 10:36:45;;;;;;;11.23;7.57;;;6.00;99.90;;;;;;5076825;28;37167;-73
2021/01/11 10:39:12;;;;;;;11.03;7.93;;;6.00;99.90;;;;;;5067329;28;37332;-74
2021/01/11 10:41:38;;;;;;;11.03;7.53;;;6.10;99.90;;;;;;5062928;28;36414;-73
2021/01/11 10:44:06;;;;;;;12.57;7.33;;;6.00;99.90;;;;;;5067741;28;37643;-73
2021/01/11 10:46:36;;;;;;;12.60;8.37;;;6.00;99.90;;;;;;5089053;28;39309;-73
2021/01/11 10:49:03;;;;;;;12.17;8.37;;;6.00;99.90;;;;;;5078619;28;37188;-74
2021/01/11 10:51:33;;;;;;;15.00;8.33;;;6.00;99.90;;;;;;5075373;28;36124;-74
2021/01/11 10:54:00;;;;;;;18.43;9.17;;;5.90;99.90;;;;;;5090232;28;36856;-73
2021/01/11 10:56:26;;;;;;;14.27;8.07;;;5.90;99.90;;;;;;5090693;28;38544;-77
2021/01/11 10:58:52;;;;;;;15.77;9.07;;;6.00;99.90;;;;;;5089787;27;37744;-76
2021/01/11 11:01:18;;;;;;;14.00;8.60;;;6.00;99.90;;;;;;5087761;28;37060;-75
2021/01/11 11:03:45;;;;;;;14.30;8.43;;;6.00;99.90;;;;;;5077864;28;40512;-75
2021/01/11 11:06:12;;;;;;;14.63;7.67;;;6.00;99.90;;;;;;5083093;28;38547;-75
2021/01/11 11:08:39;;;;;;;14.63;7.40;;;6.00;99.90;;;;;;5092892;27;38818;-75
2021/01/11 11:11:05;;;;;;;10.70;7.40;;;6.10;99.90;;;;;;5080251;28;37707;-77
2021/01/11 11:13:32;;;;;;;12.87;7.27;;;6.10;99.90;;;;;;5096811;28;20538;-77
2021/01/11 11:15:58;;;;;;;12.63;6.80;;;6.20;99.90;;;;;;5086537;28;38846;-75
2021/01/11 11:18:25;;;;;;;14.80;6.40;;;6.20;99.90;;;;;;5080216;28;37493;-76
2021/01/11 11:20:51;;;;;;;12.20;8.50;;;6.20;99.90;;;;;;5089785;28;37060;-76
2021/01/11 11:23:19;;;;;;;13.50;9.13;;;6.10;99.90;;;;;;5101577;27;39187;-78
2021/01/11 11:25:45;;;;;;;14.43;9.33;;;6.00;99.90;;;;;;5095358;28;39611;-76
2021/01/11 11:28:12;;;;;;;16.27;10.60;;;5.90;99.90;;;;;;5093906;28;39183;-75
2021/01/11 11:30:39;;;;;;;13.33;10.77;;;5.90;99.90;;;;;;5082381;28;37716;-76
2021/01/11 11:33:05;;;;;;;12.53;10.70;;;5.80;99.90;;;;;;5079220;28;39665;-76
2021/01/11 11:35:31;;;;;;;14.07;10.37;;;5.90;99.90;;;;;;5091524;28;39034;-74
2021/01/11 11:37:57;;;;;;;15.43;10.33;;;5.90;99.90;;;;;;5080611;28;37937;-76
2021/01/11 11:40:24;;;;;;;15.10;10.80;;;5.90;99.90;;;;;;5081686;28;36090;-76
2021/01/11 11:42:50;;;;;;;14.23;10.73;;;5.90;99.90;;;;;;5092344;28;38077;-76
2021/01/11 11:45:18;;;;;;;16.63;10.90;;;5.90;99.90;;;;;;5081523;28;39109;-75
2021/01/11 11:47:44;;;;;;;13.90;10.57;;;5.90;99.90;;;;;;5097390;28;38302;-76
2021/01/11 11:50:13;;;;;;;16.97;11.10;;;5.90;99.90;;;;;;5087199;28;36137;-76
2021/01/11 11:52:40;;;;;;;16.93;11.03;;;6.00;99.90;;;;;;5096926;28;39518;-76
2021/01/11 11:55:09;;;;;;;14.27;11.47;;;6.00;99.90;;;;;;5088012;28;37547;-76
2021/01/11 11:57:38;;;;;;;14.40;10.03;;;6.00;99.90;;;;;;5072638;28;38632;-77
2021/01/11 12:00:04;;;;;;;15.73;11.47;;;6.00;99.90;;;;;;5095583;28;37589;-76
2021/01/11 12:02:31;;;;;;;12.50;10.17;;;6.00;99.90;;;;;;5074344;28;39956;-75
2021/01/11 12:04:57;;;;;;;14.27;10.87;;;6.10;99.90;;;;;;5097154;28;39186;-76
2021/01/11 12:07:24;;;;;;;14.83;11.37;;;6.00;99.90;;;;;;5090814;28;38530;-75
2021/01/11 12:09:53;;;;;;;16.60;11.43;;;6.10;99.90;;;;;;5069023;28;37832;-75
2021/01/11 12:12:19;;;;;;;17.20;11.13;;;6.10;99.90;;;;;;5089279;28;38854;-74
2021/01/11 12:14:46;;;;;;;20.60;10.63;;;6.00;99.90;;;;;;5087224;28;38259;-74
2021/01/11 12:17:12;;;;;;;17.33;11.60;;;6.00;99.90;;;;;;5081821;28;38530;-75
2021/01/11 12:19:38;;;;;;;18.40;11.93;;;5.90;99.90;;;;;;5079337;28;36839;-75
2021/01/11 12:22:11;;;;;;;14.83;11.13;;;6.00;99.90;;;;;;5066096;28;37770;-75
2021/01/11 12:24:38;;;;;;;15.97;11.73;;;6.00;99.90;;;;;;5082993;28;39086;-75
2021/01/11 12:27:06;;;;;;;14.80;10.97;;;6.10;99.90;;;;;;5087224;28;37798;-74
2021/01/11 12:29:32;;;;;;;15.13;10.87;;;6.10;99.90;;;;;;5076480;28;37976;-75
2021/01/11 12:32:03;;;;;;;17.30;11.17;;;6.20;99.90;;;;;;5080279;28;40259;-75
2021/01/11 12:34:33;;;;;;;17.77;11.07;;;6.20;99.90;;;;;;5078556;28;47317;-75
2021/01/11 12:37:00;;;;;;;18.17;11.63;;;6.10;99.90;;;;;;5083879;28;38597;-75
2021/01/11 12:39:27;;;;;;;18.17;12.00;;;6.10;99.90;;;;;;5090344;28;47415;-75
2021/01/11 12:41:53;;;;;;;16.97;11.40;;;6.00;99.90;;;;;;5097762;28;39095;-75
2021/01/11 12:44:19;;;;;;;14.97;11.03;;;6.00;99.90;;;;;;5075972;28;37365;-74
2021/01/11 12:46:45;;;;;;;16.23;11.93;;;6.00;99.90;;;;;;5085187;27;38524;-76
2021/01/11 12:49:12;;;;;;;17.90;11.37;;;6.00;99.90;;;;;;5082979;28;38278;-76